Time;durP1;ratioP1;P1;durP2;ratioP2;P2;SDS_P1;SDS_P2;PMS_P1;PMS_P2;Temp;Humidity;BMP_temperature;BMP_pressure;BME280_temperature;BME280_humidity;BME280_pressure;Samples;Min_cycle;Max_cycle;Signal;HPM_P1;HPM_P2
2022/06/21 00:02:02;;;;;;;8.15;4.25;;;;;;;19.96;nan;99798.38;4974907;28;20026;-67
2022/06/21 00:04:28;;;;;;;7.28;3.90;;;;;;;19.94;nan;99793.34;4973238;28;20031;-67
2022/06/21 00:06:54;;;;;;;5.60;3.92;;;;;;;19.86;nan;99802.06;4975842;28;20038;-68
2022/06/21 00:09:21;;;;;;;7.63;3.80;;;;;;;19.93;nan;99798.97;4974660;28;20058;-66
2022/06/21 00:11:46;;;;;;;8.48;3.85;;;;;;;19.77;nan;99791.28;4974299;28;20031;-67
2022/06/21 00:14:12;;;;;;;7.38;3.80;;;;;;;;;;4963087;28;20046;-67
2022/06/21 00:16:37;;;;;;;6.70;4.20;;;;;;;;;;4959519;28;20031;-68
2022/06/21 00:19:04;;;;;;;9.52;3.70;;;;;;;;;;4961012;28;20077;-67
2022/06/21 00:21:36;;;;;;;8.05;3.97;;;;;;;19.76;nan;99767.56;4949724;28;20488;-68
2022/06/21 00:24:02;;;;;;;6.75;3.90;;;;;;;19.88;nan;99785.75;4966998;28;20047;-67
2022/06/21 00:26:29;;;;;;;5.32;4.13;;;;;;;19.89;nan;99795.31;4975391;28;20113;-64
2022/06/21 00:28:55;;;;;;;7.68;4.28;;;;;;;19.87;nan;99795.66;4962933;28;20034;-66
2022/06/21 00:31:33;;;;;;;12.13;4.97;;;;;;;19.83;nan;99775.16;4959124;28;20070;-66
2022/06/21 00:34:04;;;;;;;8.68;4.20;;;;;;;19.74;nan;99775.09;4959545;28;20401;-66
2022/06/21 00:36:34;;;;;;;7.22;4.38;;;;;;;19.64;nan;99762.72;4966568;28;20023;-66
2022/06/21 00:39:02;;;;;;;6.28;4.07;;;;;;;19.64;nan;99772.63;4948881;28;20501;-66
2022/06/21 00:41:57;;;;;;;7.68;3.97;;;;;;;19.59;nan;99789.53;4971993;28;20031;-66
2022/06/21 00:44:35;;;;;;;9.10;4.05;;;;;;;19.53;nan;99767.47;4972714;28;20038;-66
2022/06/21 00:47:12;;;;;;;6.20;4.07;;;;;;;19.54;nan;99769.06;4965120;28;20034;-67
2022/06/21 00:49:53;;;;;;;9.13;4.07;;;;;;;19.48;nan;99746.22;4965549;28;20030;-67
2022/06/21 00:52:27;;;;;;;7.78;3.65;;;;;;;19.55;nan;99778.66;4957693;28;20039;-67
2022/06/21 00:55:37;;;;;;;7.32;3.97;;;;;;;19.56;nan;99768.75;4971269;28;20094;-67
2022/06/21 00:58:03;;;;;;;8.07;4.07;;;;;;;;;;4975043;28;20031;-66
2022/06/21 01:00:35;;;;;;;8.32;3.85;;;;;;;19.60;nan;99767.06;4973336;28;20031;-66
2022/06/21 01:03:07;;;;;;;6.30;3.75;;;;;;;19.49;nan;99744.34;4971959;28;20042;-66
2022/06/21 01:05:37;;;;;;;12.80;3.90;;;;;;;19.60;nan;99767.06;4964454;28;20527;-65
2022/06/21 01:08:03;;;;;;;7.22;3.92;;;;;;;19.60;nan;99759.06;4970400;28;20397;-66
2022/06/21 01:10:30;;;;;;;8.27;3.53;;;;;;;19.59;nan;99748.69;4967195;28;20078;-66
2022/06/21 01:12:59;;;;;;;6.30;4.18;;;;;;;19.52;nan;99736.53;4966747;28;20033;-67
2022/06/21 01:15:30;;;;;;;5.72;3.92;;;;;;;19.58;nan;99737.19;4954909;28;20397;-67
2022/06/21 01:18:01;;;;;;;11.23;3.92;;;;;;;19.52;nan;99775.81;4968172;28;20059;-70
2022/06/21 01:20:32;;;;;;;5.65;3.70;;;;;;;19.54;nan;99694.28;4969583;28;20045;-71
2022/06/21 01:23:25;;;;;;;6.75;4.05;;;;;;;19.54;nan;99729.00;4958194;28;20062;-70
2022/06/21 01:25:53;;;;;;;5.07;4.00;;;;;;;19.54;nan;99706.88;4971207;28;20182;-71
2022/06/21 01:28:19;;;;;;;4.17;3.70;;;;;;;;;;4956753;28;20031;-71
2022/06/21 01:30:50;;;;;;;5.57;3.65;;;;;;;19.50;nan;99714.66;4964933;28;20273;-71
2022/06/21 01:33:24;;;;;;;6.03;3.75;;;;;;;19.50;nan;99700.53;4969773;28;20096;-71
2022/06/21 01:35:52;;;;;;;7.93;4.15;;;;;;;;;;4963811;28;20035;-71
2022/06/21 01:38:30;;;;;;;5.93;4.00;;;;;;;19.39;nan;99670.59;4971558;28;20038;-70
2022/06/21 01:41:03;;;;;;;9.93;4.00;;;;;;;19.40;nan;99682.06;4952845;28;20049;-71
2022/06/21 01:43:31;;;;;;;6.20;4.13;;;;;;;19.43;nan;99698.28;4970455;28;20035;-71
2022/06/21 01:46:07;;;;;;;6.57;4.15;;;;;;;;;;4954105;28;20042;-71
2022/06/21 01:48:35;;;;;;;7.13;4.00;;;;;;;;;;4946788;28;20464;-71
2022/06/21 01:51:05;;;;;;;4.07;3.57;;;;;;;19.38;nan;99726.97;4971485;28;20031;-71
2022/06/21 01:53:33;;;;;;;6.40;3.80;;;;;;;19.35;nan;99712.34;4965492;28;20042;-70
2022/06/21 01:56:03;;;;;;;7.63;3.55;;;;;;;19.30;nan;99643.84;4969309;28;20050;-70
2022/06/21 01:58:32;;;;;;;7.00;3.83;;;;;;;19.33;nan;99717.19;4964536;28;20035;-71
2022/06/21 02:01:06;;;;;;;4.90;3.70;;;;;;;19.31;nan;99717.47;4973134;28;20031;-71
2022/06/21 02:03:36;;;;;;;5.22;3.92;;;;;;;19.29;nan;99702.84;4964049;28;20113;-71
2022/06/21 02:06:09;;;;;;;8.73;4.40;;;;;;;19.22;nan;99689.91;4969915;28;20085;-70
2022/06/21 02:08:41;;;;;;;6.18;3.90;;;;;;;19.22;nan;99723.81;4963232;28;20129;-70
2022/06/21 02:11:14;;;;;;;7.88;3.90;;;;;;;19.26;nan;99711.47;4972422;28;20125;-70
2022/06/21 02:13:47;;;;;;;5.90;4.18;;;;;;;19.23;nan;99726.22;4971838;28;20492;-70
2022/06/21 02:16:20;;;;;;;8.50;4.28;;;;;;;19.25;nan;99728.56;4969988;28;20034;-70
2022/06/21 02:18:50;;;;;;;4.63;4.15;;;;;;;19.23;nan;99744.88;4967003;28;20034;-70
2022/06/21 02:21:34;;;;;;;8.07;4.10;;;;;;;19.23;nan;99723.53;4971888;28;20105;-70
2022/06/21 02:23:59;;;;;;;8.50;4.05;;;;;;;19.20;nan;99721.47;4952133;28;20059;-70
2022/06/21 02:26:29;;;;;;;5.55;3.58;;;;;;;19.17;nan;99723.94;4970539;28;20444;-70
2022/06/21 02:28:55;;;;;;;7.10;3.97;;;;;;;19.17;nan;99716.72;4972146;28;20117;-69
2022/06/21 02:31:25;;;;;;;6.30;3.85;;;;;;;19.12;nan;99722.94;4955843;28;20118;-70
2022/06/21 02:33:53;;;;;;;5.45;3.75;;;;;;;19.16;nan;99725.03;4953184;28;20047;-69
2022/06/21 02:36:24;;;;;;;9.82;4.03;;;;;;;19.13;nan;99772.56;4971286;28;20531;-71
2022/06/21 02:38:56;;;;;;;5.00;3.60;;;;;;;19.11;nan;99715.25;4966537;28;20037;-70
2022/06/21 02:41:39;;;;;;;4.70;3.75;;;;;;;19.12;nan;99722.16;4973109;28;20042;-70
2022/06/21 02:44:18;;;;;;;5.32;3.90;;;;;;;19.09;nan;99709.41;4964412;28;20034;-70
2022/06/21 02:46:46;;;;;;;5.90;3.60;;;;;;;;;;4969570;28;20034;-71
2022/06/21 02:49:14;;;;;;;7.55;3.90;;;;;;;19.04;nan;99710.31;4973272;28;20034;-69
2022/06/21 02:51:48;;;;;;;5.57;4.10;;;;;;;18.96;nan;99694.19;4948862;28;20205;-71
2022/06/21 02:54:25;;;;;;;7.65;4.10;;;;;;;18.94;nan;99707.03;4961300;28;20528;-70
2022/06/21 02:57:12;;;;;;;9.38;4.38;;;;;;;18.87;nan;99720.81;4964288;28;20023;-71
2022/06/21 02:59:40;;;;;;;9.05;4.13;;;;;;;18.85;nan;99726.41;4971959;28;20042;-70
2022/06/21 03:02:12;;;;;;;5.07;4.03;;;;;;;18.87;nan;99718.91;4972442;28;20041;-70
2022/06/21 03:04:38;;;;;;;4.60;3.67;;;;;;;18.90;nan;99712.19;4964225;28;20520;-70
2022/06/21 03:07:04;;;;;;;5.78;4.15;;;;;;;18.91;nan;99724.44;4956584;28;20071;-70
2022/06/21 03:09:32;;;;;;;7.30;3.83;;;;;;;18.94;nan;99742.53;4958376;28;20039;-70
2022/06/21 03:12:03;;;;;;;6.65;4.32;;;;;;;18.92;nan;99752.72;4968623;28;20031;-69
2022/06/21 03:14:31;;;;;;;5.05;3.92;;;;;;;18.90;nan;99792.22;4954824;28;20034;-70
2022/06/21 03:16:59;;;;;;;10.90;4.17;;;;;;;;;;4955217;28;20126;-70
2022/06/21 03:19:29;;;;;;;5.72;3.90;;;;;;;18.89;nan;99746.09;4972128;28;20050;-69
2022/06/21 03:21:55;;;;;;;5.60;4.20;;;;;;;19.00;nan;99769.91;4960409;28;20038;-70
2022/06/21 03:24:22;;;;;;;6.82;3.95;;;;;;;;;;4964063;28;20031;-70
2022/06/21 03:26:54;;;;;;;10.32;4.53;;;;;;;19.06;nan;99790.09;4960081;28;20031;-72
2022/06/21 03:29:20;;;;;;;13.70;4.57;;;;;;;19.04;nan;99787.69;4965541;28;20444;-71
2022/06/21 03:31:48;;;;;;;7.78;4.63;;;;;;;;;;4967372;28;20034;-70
2022/06/21 03:34:16;;;;;;;9.98;6.03;;;;;;;19.15;nan;99788.28;4963990;28;20563;-71
2022/06/21 03:36:42;;;;;;;12.87;5.20;;;;;;;19.19;nan;99858.66;4972182;28;20038;-69
2022/06/21 03:39:13;;;;;;;8.80;5.45;;;;;;;19.23;nan;99805.50;4972682;28;20051;-69
2022/06/21 03:41:45;;;;;;;15.02;5.25;;;;;;;;;;4969733;28;20162;-69
2022/06/21 03:44:25;;;;;;;10.85;5.25;;;;;;;19.30;nan;99788.00;4972146;28;20077;-71
2022/06/21 03:47:05;;;;;;;11.75;5.57;;;;;;;19.37;nan;99795.59;4971268;28;20117;-71
2022/06/21 03:49:57;;;;;;;9.25;5.70;;;;;;;19.41;nan;99783.22;4971160;28;20031;-70
2022/06/21 03:52:42;;;;;;;16.75;6.38;;;;;;;19.52;nan;99789.94;4971421;28;20035;-70
2022/06/21 03:55:11;;;;;;;8.02;5.78;;;;;;;19.61;nan;99790.03;4955374;28;20047;-69
2022/06/21 03:57:43;;;;;;;11.23;6.30;;;;;;;19.69;nan;99794.69;4968859;28;20086;-69
2022/06/21 04:00:12;;;;;;;11.43;6.10;;;;;;;19.76;nan;99792.38;4964657;28;20043;-70
2022/06/21 04:02:50;;;;;;;15.02;6.70;;;;;;;19.86;nan;99786.03;4967893;28;20034;-70
2022/06/21 04:05:24;;;;;;;12.00;6.35;;;;;;;20.00;nan;99799.34;4971692;28;20037;-70
2022/06/21 04:08:00;;;;;;;15.57;6.68;;;;;;;20.11;nan;99760.63;4961139;28;20039;-70
2022/06/21 04:10:33;;;;;;;20.50;6.65;;;;;;;20.22;nan;99741.66;4965066;28;20484;-70
2022/06/21 04:13:10;;;;;;;12.95;6.68;;;;;;;20.39;nan;99755.91;4971718;28;20077;-71
2022/06/21 04:15:51;;;;;;;9.48;6.53;;;;;;;20.59;nan;99789.41;4953939;28;20674;-70
2022/06/21 04:18:17;;;;;;;12.70;6.78;;;;;;;20.77;nan;99797.50;4967902;28;20042;-71
2022/06/21 04:21:21;;;;;;;15.27;6.78;;;;;;;20.80;nan;99778.94;4974481;28;20042;-71
2022/06/21 04:24:15;;;;;;;10.60;6.35;;;;;;;20.98;nan;99806.59;4875719;29;20078;-71
2022/06/21 04:26:54;;;;;;;12.88;7.22;;;;;;;21.05;nan;99846.31;4836989;29;20506;-69
2022/06/21 04:29:33;;;;;;;30.23;7.10;;;;;;;21.08;nan;99802.06;4838223;29;20152;-70
2022/06/21 04:32:30;;;;;;;27.80;7.15;;;;;;;21.17;nan;99832.34;4838481;29;20041;-71
2022/06/21 04:35:02;;;;;;;17.90;7.60;;;;;;;21.16;nan;99814.66;4839701;29;20049;-72
2022/06/21 04:37:54;;;;;;;17.45;7.75;;;;;;;21.23;nan;99831.88;4839205;29;20060;-71
2022/06/21 04:40:20;;;;;;;21.77;7.53;;;;;;;21.29;nan;99829.06;4839657;29;20042;-71
2022/06/21 04:42:56;;;;;;;16.17;7.25;;;;;;;21.35;nan;99801.03;4840141;29;20041;-71
2022/06/21 04:45:32;;;;;;;12.20;6.80;;;;;;;21.52;nan;99827.09;4837507;29;20030;-71
2022/06/21 04:48:09;;;;;;;14.13;7.03;;;;;;;21.70;nan;99838.66;4839580;29;20045;-71
2022/06/21 04:50:41;;;;;;;9.95;6.65;;;;;;;21.74;nan;99858.34;4839035;29;20129;-72
2022/06/21 04:53:34;;;;;;;20.58;7.47;;;;;;;21.96;nan;99858.22;4844608;29;20042;-71
2022/06/21 04:56:22;;;;;;;17.17;6.60;;;;;;;22.11;nan;99838.19;4894098;29;20078;-72
2022/06/21 04:58:50;;;;;;;13.82;6.80;;;;;;;22.23;nan;99838.38;4868730;29;20036;-71
2022/06/21 05:01:32;;;;;;;12.68;7.28;;;;;;;22.36;nan;99838.53;4896076;29;20462;-70
2022/06/21 05:04:27;;;;;;;12.93;7.57;;;;;;;22.55;nan;99855.06;4943119;28;20035;-72
2022/06/21 05:06:56;;;;;;;10.50;6.70;;;;;;;22.62;nan;99838.50;4965140;28;20436;-70
2022/06/21 05:09:25;;;;;;;10.57;6.60;;;;;;;22.72;nan;99860.44;4967950;28;20041;-70
2022/06/21 05:12:43;;;;;;;13.07;6.78;;;;;;;22.87;nan;99853.75;4972590;28;20130;-71
2022/06/21 05:15:21;;;;;;;16.67;6.38;;;;;;;23.00;nan;99904.91;4940996;28;20089;-70
2022/06/21 05:17:57;;;;;;;15.35;6.65;;;;;;;23.06;nan;99915.16;4974033;28;20113;-70
2022/06/21 05:20:28;;;;;;;15.93;6.68;;;;;;;23.12;nan;99931.91;4967432;28;20030;-72
2022/06/21 05:23:01;;;;;;;16.40;6.43;;;;;;;23.12;nan;99934.56;4971598;28;20031;-71
2022/06/21 05:25:42;;;;;;;20.65;7.50;;;;;;;23.16;nan;99943.59;4972840;28;20027;-72
2022/06/21 05:28:16;;;;;;;19.65;6.85;;;;;;;23.19;nan;99951.00;4964815;28;20118;-72
2022/06/21 05:30:51;;;;;;;23.88;7.43;;;;;;;23.20;nan;99959.84;4961965;28;20101;-71
2022/06/21 05:33:28;;;;;;;14.18;6.55;;;;;;;23.17;nan;99947.84;4967478;28;20070;-69
2022/06/21 05:35:53;;;;;;;14.25;6.95;;;;;;;23.06;nan;99944.72;4969567;28;20074;-71
2022/06/21 05:38:25;;;;;;;14.02;6.97;;;;;;;22.73;nan;99904.94;4964245;28;20061;-70
2022/06/21 05:41:00;;;;;;;30.10;7.25;;;;;;;23.04;nan;99954.97;4969854;28;20031;-68
2022/06/21 05:43:36;;;;;;;17.55;7.50;;;;;;;22.96;nan;99958.44;4968491;28;20035;-67
2022/06/21 05:46:09;;;;;;;16.73;7.38;;;;;;;23.03;nan;99966.81;4966523;28;20421;-68
2022/06/21 05:48:38;;;;;;;11.75;6.95;;;;;;;23.16;nan;99964.28;4969109;28;20039;-68
2022/06/21 05:51:07;;;;;;;14.43;6.47;;;;;;;23.24;nan;99963.47;4968491;28;20129;-68
2022/06/21 05:53:41;;;;;;;16.75;6.72;;;;;;;23.43;nan;99976.53;4956231;28;20093;-69
2022/06/21 05:56:13;;;;;;;13.82;6.65;;;;;;;23.59;nan;99969.50;4953343;28;20039;-70
2022/06/21 05:58:46;;;;;;;10.75;5.95;;;;;;;23.72;nan;99965.81;4973906;28;20398;-69
2022/06/21 06:01:25;;;;;;;11.55;5.88;;;;;;;23.86;nan;99968.31;4961714;28;20035;-71
2022/06/21 06:03:58;;;;;;;16.30;5.97;;;;;;;24.02;nan;99968.53;4979155;28;20054;-72
2022/06/21 06:06:26;;;;;;;12.43;5.40;;;;;;;24.10;nan;99973.06;4961934;28;20385;-72
2022/06/21 06:08:58;;;;;;;8.82;5.55;;;;;;;24.02;nan;99954.31;4953482;28;20038;-70
2022/06/21 06:11:57;;;;;;;10.77;5.25;;;;;;;24.25;nan;99989.75;4971555;28;20126;-70
2022/06/21 06:14:20;;;;;;;12.40;5.30;;;;;;;24.28;nan;100000.66;4968405;28;20043;-72
2022/06/21 06:16:47;;;;;;;;;;;;;;;24.28;nan;100000.66;4973961;28;20038;-72
2022/06/21 06:19:20;;;;;;;9.00;5.25;;;;;;;24.22;nan;99993.88;4971917;28;20003;-71
2022/06/21 06:22:07;;;;;;;12.07;5.05;;;;;;;24.21;nan;99997.72;4973099;28;20034;-71
2022/06/21 06:24:42;;;;;;;17.02;5.03;;;;;;;24.25;nan;100005.91;4970350;28;20045;-71
2022/06/21 06:27:23;;;;;;;11.93;5.10;;;;;;;24.22;nan;99999.28;4967852;28;20026;-71
2022/06/21 06:29:51;;;;;;;14.05;4.97;;;;;;;24.23;nan;99995.47;4968499;28;20416;-71
2022/06/21 06:32:35;;;;;;;9.60;4.80;;;;;;;24.29;nan;100004.13;4954048;28;20038;-71
2022/06/21 06:35:01;;;;;;;9.32;4.78;;;;;;;24.31;nan;99996.53;4972078;28;20042;-71
2022/06/21 06:37:36;;;;;;;9.95;5.43;;;;;;;24.42;nan;100005.78;4961620;28;20499;-73
2022/06/21 06:40:06;;;;;;;9.55;4.93;;;;;;;24.33;nan;99989.72;4971507;28;20035;-72
2022/06/21 06:42:38;;;;;;;12.90;4.95;;;;;;;24.50;nan;100010.34;4973197;28;20181;-72
2022/06/21 06:45:13;;;;;;;16.08;5.32;;;;;;;24.57;nan;100012.53;4954740;28;20042;-70
2022/06/21 06:47:43;;;;;;;11.25;4.72;;;;;;;24.62;nan;100017.72;4969115;28;20046;-70
2022/06/21 06:50:18;;;;;;;14.25;4.97;;;;;;;24.66;nan;100020.53;4972155;28;20058;-72
2022/06/21 06:53:10;;;;;;;17.23;4.50;;;;;;;24.63;nan;100011.19;4959671;28;20035;-71
2022/06/21 06:55:44;;;;;;;13.05;4.93;;;;;;;24.84;nan;100041.59;4968166;28;20097;-69
2022/06/21 06:58:23;;;;;;;12.35;5.05;;;;;;;25.04;nan;100031.13;4969668;28;20118;-71
2022/06/21 07:00:56;;;;;;;10.50;4.95;;;;;;;25.14;nan;100030.75;4969873;28;20035;-72
2022/06/21 07:03:29;;;;;;;8.43;4.25;;;;;;;25.24;nan;100019.56;4962149;28;20525;-71
2022/06/21 07:06:02;;;;;;;13.20;4.45;;;;;;;25.37;nan;100033.06;4962780;28;20456;-70
2022/06/21 07:08:41;;;;;;;9.48;3.95;;;;;;;25.59;nan;100051.53;4968446;28;20030;-71
2022/06/21 07:11:13;;;;;;;7.55;3.78;;;;;;;25.67;nan;100049.88;4973147;28;20374;-73
2022/06/21 07:13:39;;;;;;;15.07;3.90;;;;;;;25.72;nan;100051.56;4970684;28;20080;-72
2022/06/21 07:16:12;;;;;;;13.60;4.45;;;;;;;25.73;nan;100051.22;4967321;28;20063;-72
2022/06/21 07:18:46;;;;;;;9.85;3.72;;;;;;;25.74;nan;100038.50;4966476;28;20361;-72
2022/06/21 07:21:14;;;;;;;9.40;3.80;;;;;;;25.85;nan;100040.44;4969946;28;20065;-72
2022/06/21 07:23:45;;;;;;;12.75;3.38;;;;;;;25.96;nan;100043.53;4948163;28;20405;-66
2022/06/21 07:26:17;;;;;;;12.05;3.22;;;;;;;26.03;nan;100043.75;4971449;28;20377;-72
2022/06/21 07:29:02;;;;;;;5.68;3.35;;;;;;;26.14;nan;100052.16;4956513;28;20478;-69
2022/06/21 07:31:43;;;;;;;9.77;3.72;;;;;;;26.02;nan;100042.16;4963166;28;20721;-71
2022/06/21 07:34:18;;;;;;;9.82;3.35;;;;;;;25.86;nan;100041.28;4970628;28;20047;-71
2022/06/21 07:37:04;;;;;;;19.20;3.47;;;;;;;25.93;nan;100051.50;4971911;28;20085;-71
2022/06/21 07:39:39;;;;;;;8.80;3.15;;;;;;;25.99;nan;100052.84;4970401;28;20062;-71
2022/06/21 07:42:10;;;;;;;8.20;2.92;;;;;;;26.15;nan;100052.97;4967324;28;20069;-71
2022/06/21 07:44:55;;;;;;;15.93;3.30;;;;;;;26.07;nan;100022.25;4966185;28;20432;-71
2022/06/21 07:47:34;;;;;;;8.75;3.75;;;;;;;26.31;nan;100037.63;4966509;28;20047;-72
2022/06/21 07:50:17;;;;;;;8.57;3.60;;;;;;;26.41;nan;100045.28;4959821;28;20058;-72
2022/06/21 07:52:52;;;;;;;9.32;3.50;;;;;;;26.52;nan;100048.28;4972262;28;20034;-72
2022/06/21 07:55:27;;;;;;;12.07;4.32;;;;;;;26.60;nan;100050.13;4967873;28;20060;-72
2022/06/21 07:58:09;;;;;;;12.98;3.47;;;;;;;26.77;nan;100062.56;4953814;28;20019;-71
2022/06/21 08:06:41;;;;;;;6.40;2.85;;;;;;;27.08;nan;100050.28;4961552;28;20039;-73
2022/06/21 08:09:34;;;;;;;12.02;3.50;;;;;;;27.20;nan;100050.28;4963472;28;20046;-71
2022/06/21 08:12:02;;;;;;;11.52;3.28;;;;;;;27.26;nan;100043.47;4957680;28;20043;-72
2022/06/21 08:14:31;;;;;;;7.65;2.95;;;;;;;27.25;nan;100036.50;4960519;28;20117;-72
2022/06/21 08:17:15;;;;;;;10.23;3.20;;;;;;;27.47;nan;100042.47;4975345;28;20380;-72
2022/06/21 08:20:17;;;;;;;13.93;3.05;;;;;;;27.55;nan;100041.50;4970694;28;20097;-70
2022/06/21 08:23:04;;;;;;;6.40;3.20;;;;;;;27.58;nan;100024.56;4959723;28;20078;-72
2022/06/21 08:25:54;;;;;;;9.38;2.90;;;;;;;27.82;nan;100055.28;4972250;28;20031;-72
2022/06/21 08:28:27;;;;;;;15.48;3.22;;;;;;;27.94;nan;100045.22;4965312;28;20046;-71
2022/06/21 08:30:56;;;;;;;10.35;3.08;;;;;;;28.03;nan;100050.41;4969059;28;20089;-70
2022/06/21 08:33:30;;;;;;;9.85;2.78;;;;;;;28.10;nan;100037.03;4975826;28;20348;-72
2022/06/21 08:36:08;;;;;;;9.68;3.13;;;;;;;28.24;nan;100049.34;4964912;28;20067;-71
2022/06/21 08:39:07;;;;;;;12.45;2.95;;;;;;;28.29;nan;100051.78;4974983;28;20042;-72
2022/06/21 08:41:56;;;;;;;6.43;2.80;;;;;;;28.26;nan;100047.06;4969388;28;20051;-71
2022/06/21 08:47:52;;;;;;;9.02;2.95;;;;;;;28.28;nan;100044.78;4973385;28;20416;-72
2022/06/21 08:50:36;;;;;;;8.90;2.90;;;;;;;28.34;nan;100048.78;4959177;28;20141;-71
2022/06/21 08:53:59;;;;;;;13.63;3.13;;;;;;;28.40;nan;100045.47;4964809;28;20046;-70
2022/06/21 08:56:40;;;;;;;11.35;3.70;;;;;;;28.39;nan;100032.25;4908682;29;20041;-71
2022/06/21 08:59:33;;;;;;;10.77;3.08;;;;;;;28.39;nan;100037.69;4898130;29;20051;-71
2022/06/21 09:02:37;;;;;;;23.98;2.92;;;;;;;28.35;nan;100026.78;4896053;29;20123;-71
2022/06/21 09:05:33;;;;;;;14.70;3.42;;;;;;;28.36;nan;100051.94;4892693;29;20067;-71
2022/06/21 09:08:25;;;;;;;18.23;3.25;;;;;;;28.41;nan;100059.78;4895963;29;20039;-72
2022/06/21 09:11:25;;;;;;;9.32;3.17;;;;;;;28.44;nan;100048.22;4896508;29;20169;-72
2022/06/21 09:14:01;;;;;;;15.23;2.83;;;;;;;28.38;nan;100049.66;4876289;29;20062;-71
2022/06/21 09:16:32;;;;;;;11.32;3.28;;;;;;;28.36;nan;100057.34;4894620;29;20051;-71
2022/06/21 09:19:40;;;;;;;4.70;2.30;;;;;;;28.45;nan;100052.53;4896912;29;20049;-71
2022/06/21 09:22:34;;;;;;;7.50;3.22;;;;;;;28.32;nan;100024.75;4890882;29;20647;-74
2022/06/21 09:25:17;;;;;;;8.02;2.78;;;;;;;28.49;nan;100058.81;4895207;29;20097;-72
2022/06/21 09:28:02;;;;;;;7.80;2.85;;;;;;;28.55;nan;100068.25;4928177;28;20086;-71
2022/06/21 09:30:31;;;;;;;5.50;2.80;;;;;;;28.59;nan;100062.91;4953144;28;20031;-70
2022/06/21 09:33:02;;;;;;;13.25;2.80;;;;;;;28.57;nan;100068.69;4955844;28;20097;-69
2022/06/21 09:35:53;;;;;;;8.00;2.85;;;;;;;28.61;nan;100069.53;4960118;28;20527;-71
2022/06/21 09:38:27;;;;;;;11.13;3.28;;;;;;;28.60;nan;100069.91;4962174;28;20031;-71
2022/06/21 09:41:06;;;;;;;10.75;3.35;;;;;;;28.66;nan;100075.81;4964923;28;20031;-72
2022/06/21 09:43:46;;;;;;;13.40;3.10;;;;;;;28.66;nan;100073.09;4958935;28;20054;-71
2022/06/21 09:46:22;;;;;;;10.82;3.25;;;;;;;28.59;nan;100061.00;4955137;28;20038;-70
2022/06/21 09:49:01;;;;;;;5.85;3.10;;;;;;;28.68;nan;100057.28;4963458;28;20114;-71
2022/06/21 09:51:58;;;;;;;8.85;2.80;;;;;;;28.82;nan;100071.13;4955104;28;20042;-71
2022/06/21 09:54:50;;;;;;;8.05;3.00;;;;;;;28.73;nan;100054.28;4938434;28;20093;-71
2022/06/21 09:57:41;;;;;;;6.57;3.40;;;;;;;28.81;nan;100072.28;4967785;28;20030;-72
2022/06/21 10:00:10;;;;;;;5.93;2.97;;;;;;;28.77;nan;100074.13;4956084;28;20513;-71
2022/06/21 10:03:04;;;;;;;8.95;3.03;;;;;;;28.85;nan;100062.25;4968755;28;20039;-72
2022/06/21 10:05:40;;;;;;;7.03;3.17;;;;;;;28.88;nan;100067.00;4969911;28;20480;-72
2022/06/21 10:08:17;;;;;;;13.35;3.90;;;;;;;28.97;nan;100066.75;4965950;28;20043;-71
2022/06/21 10:10:58;;;;;;;7.43;3.03;;;;;;;28.96;nan;100068.69;4969070;28;20396;-69
2022/06/21 10:13:26;;;;;;;6.85;2.88;;;;;;;28.96;nan;100063.28;4949462;28;20133;-69
2022/06/21 10:16:16;;;;;;;8.18;2.70;;;;;;;28.95;nan;100058.19;4971265;28;20054;-69
2022/06/21 10:18:57;;;;;;;7.57;2.50;;;;;;;28.99;nan;100057.13;4967272;28;20062;-72
2022/06/21 10:21:31;;;;;;;7.88;3.00;;;;;;;29.02;nan;100064.56;4968241;28;20041;-71
2022/06/21 10:24:05;;;;;;;7.70;2.90;;;;;;;29.11;nan;100052.72;4976307;28;20129;-71
2022/06/21 10:27:10;;;;;;;12.15;2.75;;;;;;;29.19;nan;100057.94;4973390;28;20038;-71
2022/06/21 10:30:04;;;;;;;7.75;2.63;;;;;;;29.09;nan;100066.63;4964860;28;20030;-70
2022/06/21 10:33:11;;;;;;;5.75;2.22;;;;;;;29.08;nan;100046.09;4970043;28;20042;-70
2022/06/21 10:35:48;;;;;;;5.75;2.55;;;;;;;29.19;nan;100057.16;4957012;28;20053;-71
2022/06/21 10:38:42;;;;;;;5.78;2.70;;;;;;;29.37;nan;100060.19;4970013;28;20045;-70
2022/06/21 10:41:16;;;;;;;8.05;2.50;;;;;;;29.40;nan;100056.75;4969956;28;20038;-71
2022/06/21 10:44:03;;;;;;;5.80;2.88;;;;;;;29.46;nan;100053.38;4968648;28;20035;-71
2022/06/21 10:46:36;;;;;;;6.57;3.08;;;;;;;29.38;nan;100040.03;4961858;28;20616;-71
2022/06/21 10:49:14;;;;;;;6.07;2.80;;;;;;;29.47;nan;100051.44;4965061;28;20035;-71
2022/06/21 10:52:08;;;;;;;9.70;3.03;;;;;;;29.60;nan;100052.06;4960605;28;20035;-71
2022/06/21 10:54:33;;;;;;;8.13;2.92;;;;;;;29.58;nan;100051.63;4970057;28;20086;-71
2022/06/21 10:57:19;;;;;;;6.20;2.97;;;;;;;29.60;nan;100052.84;4967954;28;20426;-71
2022/06/21 11:02:47;;;;;;;9.90;2.60;;;;;;;29.68;nan;100051.06;4966499;28;20039;-69
2022/06/21 11:05:34;;;;;;;11.30;2.58;;;;;;;29.69;nan;100044.50;4969510;28;20041;-71
2022/06/21 11:08:14;;;;;;;6.95;2.40;;;;;;;29.73;nan;100058.88;4964951;28;20038;-70
2022/06/21 11:10:47;;;;;;;7.53;2.28;;;;;;;29.77;nan;100061.69;4954161;28;20216;-71
2022/06/21 11:13:17;;;;;;;5.80;2.60;;;;;;;29.74;nan;100044.19;4978581;28;20040;-71
2022/06/21 11:16:04;;;;;;;3.95;2.10;;;;;;;29.88;nan;100054.47;4966511;28;20034;-70
2022/06/21 11:18:55;;;;;;;8.02;2.40;;;;;;;29.84;nan;100048.22;4970656;28;20035;-69
2022/06/21 11:22:03;;;;;;;10.65;2.60;;;;;;;29.79;nan;100051.25;4955017;28;20047;-70
2022/06/21 11:24:37;;;;;;;5.22;2.45;;;;;;;29.84;nan;100056.34;4962747;28;20425;-70
2022/06/21 11:27:18;;;;;;;6.95;2.20;;;;;;;29.83;nan;100041.97;4983354;28;20050;-70
2022/06/21 11:30:03;;;;;;;10.27;2.20;;;;;;;29.91;nan;100048.31;4954179;28;20043;-71
2022/06/21 11:32:43;;;;;;;11.48;2.35;;;;;;;29.98;nan;100070.16;4952224;28;20506;-70
2022/06/21 11:35:40;;;;;;;10.18;2.30;;;;;;;29.84;nan;100048.22;4973641;28;20471;-70
2022/06/21 11:38:43;;;;;;;3.88;1.90;;;;;;;29.82;nan;100066.78;4972541;28;20492;-70
2022/06/21 11:44:17;;;;;;;4.97;1.98;;;;;;;29.97;nan;100056.94;4972696;28;20492;-70
2022/06/21 11:47:01;;;;;;;8.38;2.20;;;;;;;29.99;nan;100050.00;4958731;28;20038;-70
2022/06/21 11:49:34;;;;;;;4.70;2.20;;;;;;;29.95;nan;100054.56;4961725;28;20182;-70
2022/06/21 11:52:00;;;;;;;6.65;2.20;;;;;;;29.96;nan;100052.66;4966294;28;20042;-70
2022/06/21 11:54:33;;;;;;;26.47;3.03;;;;;;;29.94;nan;100052.25;4972814;28;20407;-68
2022/06/21 11:57:02;;;;;;;8.32;2.05;;;;;;;29.95;nan;100040.22;4967617;28;20257;-70
2022/06/21 11:59:49;;;;;;;7.78;2.00;;;;;;;30.01;nan;100031.41;4956292;28;20042;-69
2022/06/21 12:02:17;;;;;;;6.75;2.35;;;;;;;30.09;nan;100048.56;4979215;28;20038;-69
2022/06/21 12:04:53;;;;;;;17.15;2.90;;;;;;;30.20;nan;100040.59;4975940;28;20170;-71
2022/06/21 12:07:36;;;;;;;7.95;2.33;;;;;;;30.08;nan;100030.72;4979042;28;20034;-70
2022/06/21 12:10:28;;;;;;;10.10;2.25;;;;;;;30.30;nan;100038.06;4965849;28;20038;-70
2022/06/21 12:13:00;;;;;;;6.90;2.10;;;;;;;30.45;nan;100040.97;4956181;28;20034;-70
2022/06/21 12:15:51;;;;;;;3.88;2.13;;;;;;;30.43;nan;100030.47;4963932;28;20035;-71
2022/06/21 12:18:24;;;;;;;11.75;2.63;;;;;;;30.07;nan;99991.13;4973784;28;20374;-70
2022/06/21 12:20:58;;;;;;;9.63;2.13;;;;;;;30.21;nan;100034.78;4974375;28;20102;-71
2022/06/21 12:23:32;;;;;;;16.20;2.60;;;;;;;30.26;nan;100044.59;4973458;28;20441;-71
2022/06/21 12:25:58;;;;;;;11.23;2.58;;;;;;;30.21;nan;100056.50;4966147;28;20034;-71
2022/06/21 12:28:26;;;;;;;17.67;2.80;;;;;;;30.13;nan;100044.00;4975021;28;20030;-69
2022/06/21 12:30:52;;;;;;;6.40;2.13;;;;;;;30.01;nan;100060.50;4975996;28;20034;-70
2022/06/21 12:33:22;;;;;;;14.27;2.20;;;;;;;29.89;nan;100062.25;4966191;28;20062;-69
2022/06/21 12:35:56;;;;;;;10.63;2.10;;;;;;;29.89;nan;100064.97;4955796;28;20046;-69
2022/06/21 12:38:33;;;;;;;12.07;2.38;;;;;;;29.86;nan;100059.50;4969950;28;20064;-70
2022/06/21 12:41:05;;;;;;;11.68;2.20;;;;;;;29.95;nan;100064.66;4972009;28;20054;-70
2022/06/21 12:43:48;;;;;;;13.15;2.03;;;;;;;29.85;nan;100074.97;4972733;28;20094;-70
2022/06/21 12:46:30;;;;;;;10.70;2.55;;;;;;;29.72;nan;100070.13;4942726;28;20046;-69
2022/06/21 12:49:26;;;;;;;12.70;2.35;;;;;;;29.63;nan;100071.09;4973833;28;20035;-70
2022/06/21 12:52:05;;;;;;;13.73;2.30;;;;;;;29.50;nan;100077.88;4967017;28;20089;-69